sensor_id;sensor_type;location;lat;lon;timestamp;pressure;altitude;pressure_sealevel;temperature;humidity
23619;BME280;18207;32.078;34.818;2023-02-19T00:01:34;101967.75;;;21.28;37.50
23619;BME280;18207;32.078;34.818;2023-02-19T00:04:07;101974.78;;;21.25;37.26
23619;BME280;18207;32.078;34.818;2023-02-19T00:06:41;101977.06;;;21.23;37.00
23619;BME280;18207;32.078;34.818;2023-02-19T00:09:14;101970.94;;;21.21;37.37
23619;BME280;18207;32.078;34.818;2023-02-19T00:11:45;101976.53;;;21.21;37.33
23619;BME280;18207;32.078;34.818;2023-02-19T00:14:20;101972.41;;;21.19;37.53
23619;BME280;18207;32.078;34.818;2023-02-19T00:16:54;101967.94;;;21.18;37.30
23619;BME280;18207;32.078;34.818;2023-02-19T00:19:24;101963.50;;;21.17;37.00
23619;BME280;18207;32.078;34.818;2023-02-19T00:21:54;101964.94;;;21.14;37.09
23619;BME280;18207;32.078;34.818;2023-02-19T00:24:25;101960.50;;;21.13;37.33
23619;BME280;18207;32.078;34.818;2023-02-19T00:26:56;101951.28;;;21.13;37.40
23619;BME280;18207;32.078;34.818;2023-02-19T00:29:27;101951.56;;;21.11;37.34
23619;BME280;18207;32.078;34.818;2023-02-19T00:32:00;101950.75;;;21.11;37.28
23619;BME280;18207;32.078;34.818;2023-02-19T00:34:31;101947.44;;;21.09;37.51
23619;BME280;18207;32.078;34.818;2023-02-19T00:37:02;101956.97;;;21.08;36.99
23619;BME280;18207;32.078;34.818;2023-02-19T00:39:33;101948.06;;;21.06;36.93
23619;BME280;18207;32.078;34.818;2023-02-19T00:42:03;101946.41;;;21.05;37.30
23619;BME280;18207;32.078;34.818;2023-02-19T00:44:35;101941.13;;;21.03;37.04
23619;BME280;18207;32.078;34.818;2023-02-19T00:47:08;101942.25;;;21.02;37.36
23619;BME280;18207;32.078;34.818;2023-02-19T00:49:39;101944.53;;;21.00;37.13
23619;BME280;18207;32.078;34.818;2023-02-19T00:52:10;101936.47;;;20.99;37.19
23619;BME280;18207;32.078;34.818;2023-02-19T00:54:40;101938.72;;;20.97;36.80
23619;BME280;18207;32.078;34.818;2023-02-19T00:57:11;101930.66;;;20.95;37.06
23619;BME280;18207;32.078;34.818;2023-02-19T00:59:42;101934.59;;;20.94;37.01
23619;BME280;18207;32.078;34.818;2023-02-19T01:02:15;101930.16;;;20.93;36.99
23619;BME280;18207;32.078;34.818;2023-02-19T01:04:46;101927.66;;;20.92;37.14
23619;BME280;18207;32.078;34.818;2023-02-19T01:07:16;101921.25;;;20.91;37.47
23619;BME280;18207;32.078;34.818;2023-02-19T01:09:47;101921.56;;;20.90;37.15
23619;BME280;18207;32.078;34.818;2023-02-19T01:12:18;101919.91;;;20.89;37.31
23619;BME280;18207;32.078;34.818;2023-02-19T01:14:49;101924.16;;;20.86;36.84
23619;BME280;18207;32.078;34.818;2023-02-19T01:17:22;101921.34;;;20.86;37.38
23619;BME280;18207;32.078;34.818;2023-02-19T01:19:52;101918.03;;;20.84;37.30
23619;BME280;18207;32.078;34.818;2023-02-19T01:22:23;101909.97;;;20.83;37.49
23619;BME280;18207;32.078;34.818;2023-02-19T01:24:54;101912.25;;;20.81;37.36
23619;BME280;18207;32.078;34.818;2023-02-19T01:27:25;101916.97;;;20.80;37.09
23619;BME280;18207;32.078;34.818;2023-02-19T01:29:59;101916.50;;;20.78;37.50
23619;BME280;18207;32.078;34.818;2023-02-19T01:32:33;101916.50;;;20.78;37.37
23619;BME280;18207;32.078;34.818;2023-02-19T01:35:04;101912.03;;;20.77;37.26
23619;BME280;18207;32.078;34.818;2023-02-19T01:37:34;101916.78;;;20.77;37.30
23619;BME280;18207;32.078;34.818;2023-02-19T01:40:05;101905.88;;;20.75;36.83
23619;BME280;18207;32.078;34.818;2023-02-19T01:42:36;101905.06;;;20.75;37.32
23619;BME280;18207;32.078;34.818;2023-02-19T01:45:23;101904.56;;;20.73;36.87
23619;BME280;18207;32.078;34.818;2023-02-19T01:48:11;101900.09;;;20.72;37.33
23619;BME280;18207;32.078;34.818;2023-02-19T01:50:48;101905.97;;;20.70;36.95
23619;BME280;18207;32.078;34.818;2023-02-19T01:53:24;101903.50;;;20.69;37.46
23619;BME280;18207;32.078;34.818;2023-02-19T01:55:59;101901.03;;;20.67;37.41
23619;BME280;18207;32.078;34.818;2023-02-19T01:58:34;101904.94;;;20.66;37.15
23619;BME280;18207;32.078;34.818;2023-02-19T02:01:07;101892.44;;;20.64;37.36
23619;BME280;18207;32.078;34.818;2023-02-19T02:03:43;101892.44;;;20.64;37.30
23619;BME280;18207;32.078;34.818;2023-02-19T02:06:22;101887.13;;;20.63;37.38
23619;BME280;18207;32.078;34.818;2023-02-19T02:08:56;101901.09;;;20.63;37.35
23619;BME280;18207;32.078;34.818;2023-02-19T02:11:51;101896.16;;;20.60;37.34
23619;BME280;18207;32.078;34.818;2023-02-19T02:14:27;101895.63;;;20.58;36.91
23619;BME280;18207;32.078;34.818;2023-02-19T02:17:11;101897.56;;;20.57;37.55
23619;BME280;18207;32.078;34.818;2023-02-19T02:20:20;101895.91;;;20.56;37.06
23619;BME280;18207;32.078;34.818;2023-02-19T02:23:07;101893.44;;;20.55;37.29
23619;BME280;18207;32.078;34.818;2023-02-19T02:26:15;101902.13;;;20.53;36.87
23619;BME280;18207;32.078;34.818;2023-02-19T02:29:54;101898.00;;;20.51;36.92
23619;BME280;18207;32.078;34.818;2023-02-19T02:32:38;101894.69;;;20.49;37.20
23619;BME280;18207;32.078;34.818;2023-02-19T02:35:24;101903.06;;;20.49;36.90
23619;BME280;18207;32.078;34.818;2023-02-19T02:38:04;101899.13;;;20.50;37.41
23619;BME280;18207;32.078;34.818;2023-02-19T02:40:41;101907.50;;;20.50;37.39
23619;BME280;18207;32.078;34.818;2023-02-19T02:43:13;101905.84;;;20.49;37.04
23619;BME280;18207;32.078;34.818;2023-02-19T02:45:47;101898.59;;;20.48;37.37
23619;BME280;18207;32.078;34.818;2023-02-19T02:48:30;101900.88;;;20.46;37.15
23619;BME280;18207;32.078;34.818;2023-02-19T02:51:12;101898.69;;;20.43;36.87
23619;BME280;18207;32.078;34.818;2023-02-19T02:53:50;101898.47;;;20.39;37.34
23619;BME280;18207;32.078;34.818;2023-02-19T02:56:40;101896.31;;;20.36;37.25
23619;BME280;18207;32.078;34.818;2023-02-19T02:59:15;101900.53;;;20.34;37.36
23619;BME280;18207;32.078;34.818;2023-02-19T03:01:53;101903.31;;;20.34;37.42
23619;BME280;18207;32.078;34.818;2023-02-19T03:04:51;101904.75;;;20.31;37.13
23619;BME280;18207;32.078;34.818;2023-02-19T03:07:44;101901.44;;;20.29;37.44
23619;BME280;18207;32.078;34.818;2023-02-19T03:10:21;101893.06;;;20.29;36.90
23619;BME280;18207;32.078;34.818;2023-02-19T03:12:58;101899.78;;;20.28;37.44
23619;BME280;18207;32.078;34.818;2023-02-19T03:15:51;101894.19;;;20.28;37.34
23619;BME280;18207;32.078;34.818;2023-02-19T03:18:49;101900.09;;;20.27;36.94
23619;BME280;18207;32.078;34.818;2023-02-19T03:21:42;101892.84;;;20.26;36.98
23619;BME280;18207;32.078;34.818;2023-02-19T03:24:15;101899.56;;;20.25;37.01
23619;BME280;18207;32.078;34.818;2023-02-19T03:27:06;101891.81;;;20.22;37.11
23619;BME280;18207;32.078;34.818;2023-02-19T03:29:41;101902.16;;;20.21;37.41
23619;BME280;18207;32.078;34.818;2023-02-19T03:32:20;101908.06;;;20.20;36.92
23619;BME280;18207;32.078;34.818;2023-02-19T03:35:01;101905.25;;;20.20;36.89
23619;BME280;18207;32.078;34.818;2023-02-19T03:37:40;101917.56;;;20.19;36.99
23619;BME280;18207;32.078;34.818;2023-02-19T03:40:13;101910.31;;;20.18;36.96
23619;BME280;18207;32.078;34.818;2023-02-19T03:42:57;101910.31;;;20.18;37.40
23619;BME280;18207;32.078;34.818;2023-02-19T03:45:41;101912.25;;;20.17;37.01
23619;BME280;18207;32.078;34.818;2023-02-19T03:48:32;101908.97;;;20.15;37.44
23619;BME280;18207;32.078;34.818;2023-02-19T03:51:23;101920.13;;;20.15;37.37
23619;BME280;18207;32.078;34.818;2023-02-19T03:54:10;101917.63;;;20.14;37.08
23619;BME280;18207;32.078;34.818;2023-02-19T03:56:47;101910.38;;;20.13;37.05
23619;BME280;18207;32.078;34.818;2023-02-19T03:59:29;101924.66;;;20.11;36.93
23619;BME280;18207;32.078;34.818;2023-02-19T04:02:09;101919.06;;;20.11;37.25
23619;BME280;18207;32.078;34.818;2023-02-19T04:04:47;101927.44;;;20.11;37.48
23619;BME280;18207;32.078;34.818;2023-02-19T04:07:24;101922.16;;;20.10;36.96
23619;BME280;18207;32.078;34.818;2023-02-19T04:09:57;101919.66;;;20.08;37.13
23619;BME280;18207;32.078;34.818;2023-02-19T04:12:30;101924.44;;;20.08;37.51
23619;BME280;18207;32.078;34.818;2023-02-19T04:15:09;101921.97;;;20.06;37.53
23619;BME280;18207;32.078;34.818;2023-02-19T04:17:46;101925.88;;;20.05;37.18
23619;BME280;18207;32.078;34.818;2023-02-19T04:20:23;101931.47;;;20.05;37.12
23619;BME280;18207;32.078;34.818;2023-02-19T04:22:58;101929.78;;;20.04;37.52
23619;BME280;18207;32.078;34.818;2023-02-19T04:25:30;101932.06;;;20.02;37.06
23619;BME280;18207;32.078;34.818;2023-02-19T04:28:02;101934.84;;;20.02;37.06
23619;BME280;18207;32.078;34.818;2023-02-19T04:30:33;101936.28;;;20.00;37.54
23619;BME280;18207;32.078;34.818;2023-02-19T04:33:04;101937.41;;;19.99;37.51
23619;BME280;18207;32.078;34.818;2023-02-19T04:35:37;101937.41;;;19.99;37.24
23619;BME280;18207;32.078;34.818;2023-02-19T04:38:10;101937.69;;;19.97;37.51
23619;BME280;18207;32.078;34.818;2023-02-19T04:40:41;101950.03;;;19.96;37.32
23619;BME280;18207;32.078;34.818;2023-02-19T04:43:11;101951.97;;;19.96;37.28
23619;BME280;18207;32.078;34.818;2023-02-19T04:45:43;101953.94;;;19.95;37.32
23619;BME280;18207;32.078;34.818;2023-02-19T04:48:13;101954.19;;;19.94;37.20
23619;BME280;18207;32.078;34.818;2023-02-19T04:50:44;101952.25;;;19.94;37.36
23619;BME280;18207;32.078;34.818;2023-02-19T04:53:17;101957.81;;;19.94;37.65
23619;BME280;18207;32.078;34.818;2023-02-19T04:55:48;101958.94;;;19.93;37.31
23619;BME280;18207;32.078;34.818;2023-02-19T04:58:21;101953.06;;;19.95;37.64
23619;BME280;18207;32.078;34.818;2023-02-19T05:00:52;101960.00;;;19.97;37.18
23619;BME280;18207;32.078;34.818;2023-02-19T05:03:22;101964.72;;;20.02;37.50
23619;BME280;18207;32.078;34.818;2023-02-19T05:05:52;101964.63;;;20.07;37.49
23619;BME280;18207;32.078;34.818;2023-02-19T05:08:26;101963.94;;;20.15;38.22
23619;BME280;18207;32.078;34.818;2023-02-19T05:10:58;101971.63;;;20.23;37.56
23619;BME280;18207;32.078;34.818;2023-02-19T05:13:29;101967.84;;;20.32;38.37
23619;BME280;18207;32.078;34.818;2023-02-19T05:16:03;101970.47;;;20.42;38.50
23619;BME280;18207;32.078;34.818;2023-02-19T05:18:34;101976.69;;;20.53;38.01
23619;BME280;18207;32.078;34.818;2023-02-19T05:21:05;101980.44;;;20.62;38.16
23619;BME280;18207;32.078;34.818;2023-02-19T05:23:39;101971.59;;;20.73;38.23
23619;BME280;18207;32.078;34.818;2023-02-19T05:26:13;101975.56;;;20.85;38.62
23619;BME280;18207;32.078;34.818;2023-02-19T05:28:45;101979.00;;;20.96;38.76
23619;BME280;18207;32.078;34.818;2023-02-19T05:31:18;101986.56;;;21.09;38.64
23619;BME280;18207;32.078;34.818;2023-02-19T05:33:49;101984.72;;;21.18;38.32
23619;BME280;18207;32.078;34.818;2023-02-19T05:36:21;101990.94;;;21.28;38.48
23619;BME280;18207;32.078;34.818;2023-02-19T05:38:56;101992.69;;;21.38;38.77
23619;BME280;18207;32.078;34.818;2023-02-19T05:41:29;101996.41;;;21.47;38.43
23619;BME280;18207;32.078;34.818;2023-02-19T05:44:00;101994.28;;;21.57;38.41
23619;BME280;18207;32.078;34.818;2023-02-19T05:46:31;101998.00;;;21.66;38.91
23619;BME280;18207;32.078;34.818;2023-02-19T05:49:01;101995.50;;;21.78;38.43
23619;BME280;18207;32.078;34.818;2023-02-19T05:51:32;102002.50;;;21.89;38.80
23619;BME280;18207;32.078;34.818;2023-02-19T05:54:05;101993.59;;;22.00;38.78
23619;BME280;18207;32.078;34.818;2023-02-19T05:56:39;102007.88;;;22.12;38.59
23619;BME280;18207;32.078;34.818;2023-02-19T05:59:16;102003.34;;;22.25;38.59
23619;BME280;18207;32.078;34.818;2023-02-19T06:01:48;102008.41;;;22.36;38.31
23619;BME280;18207;32.078;34.818;2023-02-19T06:04:19;102017.91;;;22.48;38.50
23619;BME280;18207;32.078;34.818;2023-02-19T06:06:50;102013.69;;;22.59;38.53
23619;BME280;18207;32.078;34.818;2023-02-19T06:09:23;102018.75;;;22.71;38.72
23619;BME280;18207;32.078;34.818;2023-02-19T06:11:54;102012.03;;;22.80;38.36
23619;BME280;18207;32.078;34.818;2023-02-19T06:14:25;102015.41;;;22.91;38.28
23619;BME280;18207;32.078;34.818;2023-02-19T06:16:56;102023.53;;;23.01;38.32
23619;BME280;18207;32.078;34.818;2023-02-19T06:19:26;102014.88;;;23.11;38.48
23619;BME280;18207;32.078;34.818;2023-02-19T06:21:56;102016.25;;;23.22;38.81
23619;BME280;18207;32.078;34.818;2023-02-19T06:24:31;102015.00;;;23.36;38.43
23619;BME280;18207;32.078;34.818;2023-02-19T06:27:05;102015.22;;;23.48;38.62
23619;BME280;18207;32.078;34.818;2023-02-19T06:29:36;102008.66;;;23.61;38.52
23619;BME280;18207;32.078;34.818;2023-02-19T06:32:07;102018.66;;;23.75;38.06
23619;BME280;18207;32.078;34.818;2023-02-19T06:34:38;102008.25;;;23.84;38.16
23619;BME280;18207;32.078;34.818;2023-02-19T06:37:08;102013.22;;;23.96;38.05
23619;BME280;18207;32.078;34.818;2023-02-19T06:39:41;102012.25;;;24.09;38.27
23619;BME280;18207;32.078;34.818;2023-02-19T06:42:13;102003.19;;;24.20;38.09
23619;BME280;18207;32.078;34.818;2023-02-19T06:44:44;102014.59;;;24.32;38.38
23619;BME280;18207;32.078;34.818;2023-02-19T06:47:15;101998.25;;;24.42;37.96
23619;BME280;18207;32.078;34.818;2023-02-19T06:49:46;102002.88;;;24.55;37.98
23619;BME280;18207;32.078;34.818;2023-02-19T06:52:17;101998.22;;;24.68;37.81
23619;BME280;18207;32.078;34.818;2023-02-19T06:54:49;102008.47;;;24.81;37.87
23619;BME280;18207;32.078;34.818;2023-02-19T06:57:20;102010.25;;;24.94;37.57
23619;BME280;18207;32.078;34.818;2023-02-19T06:59:51;102010.22;;;25.02;37.47
23619;BME280;18207;32.078;34.818;2023-02-19T07:02:21;102016.69;;;25.11;37.36
23619;BME280;18207;32.078;34.818;2023-02-19T07:04:51;102009.88;;;25.20;37.29
23619;BME280;18207;32.078;34.818;2023-02-19T07:07:22;102022.75;;;25.30;37.31
23619;BME280;18207;32.078;34.818;2023-02-19T07:09:55;102018.38;;;25.41;36.87
23619;BME280;18207;32.078;34.818;2023-02-19T07:12:26;102016.38;;;25.50;36.73
23619;BME280;18207;32.078;34.818;2023-02-19T07:14:56;102018.81;;;25.60;36.39
23619;BME280;18207;32.078;34.818;2023-02-19T07:17:27;102014.78;;;25.69;36.73
23619;BME280;18207;32.078;34.818;2023-02-19T07:19:58;102019.56;;;25.77;36.70
23619;BME280;18207;32.078;34.818;2023-02-19T07:22:39;102021.19;;;25.87;36.39
23619;BME280;18207;32.078;34.818;2023-02-19T07:25:11;102011.34;;;25.93;36.00
23619;BME280;18207;32.078;34.818;2023-02-19T07:27:42;102013.28;;;26.00;36.32
23619;BME280;18207;32.078;34.818;2023-02-19T07:30:13;102010.41;;;26.09;36.12
23619;BME280;18207;32.078;34.818;2023-02-19T07:32:42;102010.00;;;26.19;35.90
23619;BME280;18207;32.078;34.818;2023-02-19T07:35:13;102015.22;;;26.29;36.10
23619;BME280;18207;32.078;34.818;2023-02-19T07:37:44;102014.81;;;26.39;36.00
23619;BME280;18207;32.078;34.818;2023-02-19T07:40:17;102005.13;;;26.48;35.76
23619;BME280;18207;32.078;34.818;2023-02-19T07:42:47;102007.88;;;26.57;35.76
23619;BME280;18207;32.078;34.818;2023-02-19T07:45:18;102002.97;;;26.66;35.69
23619;BME280;18207;32.078;34.818;2023-02-19T07:47:48;102005.38;;;26.76;35.68
23619;BME280;18207;32.078;34.818;2023-02-19T07:50:19;102002.47;;;26.84;35.60
23619;BME280;18207;32.078;34.818;2023-02-19T07:52:49;102004.38;;;26.92;35.47
23619;BME280;18207;32.078;34.818;2023-02-19T07:55:23;101998.97;;;26.99;35.17
23619;BME280;18207;32.078;34.818;2023-02-19T07:57:53;101996.44;;;27.06;35.15
23619;BME280;18207;32.078;34.818;2023-02-19T08:00:24;101998.34;;;27.14;35.06
23619;BME280;18207;32.078;34.818;2023-02-19T08:02:55;101996.59;;;27.21;35.01
23619;BME280;18207;32.078;34.818;2023-02-19T08:05:28;101996.34;;;27.26;34.60
23619;BME280;18207;32.078;34.818;2023-02-19T08:07:59;101989.66;;;27.31;34.52
23619;BME280;18207;32.078;34.818;2023-02-19T08:10:32;101983.78;;;27.36;34.51
23619;BME280;18207;32.078;34.818;2023-02-19T08:13:19;101990.00;;;27.41;34.44
23619;BME280;18207;32.078;34.818;2023-02-19T08:15:54;101978.97;;;27.48;34.78
23619;BME280;18207;32.078;34.818;2023-02-19T08:18:41;101990.13;;;27.57;34.46
23619;BME280;18207;32.078;34.818;2023-02-19T08:21:13;101974.28;;;27.64;34.28
23619;BME280;18207;32.078;34.818;2023-02-19T08:23:45;101981.00;;;27.72;34.32
23619;BME280;18207;32.078;34.818;2023-02-19T08:26:20;101977.22;;;27.79;34.39
23619;BME280;18207;32.078;34.818;2023-02-19T08:28:51;101966.97;;;27.87;34.14
23619;BME280;18207;32.078;34.818;2023-02-19T08:31:21;101968.00;;;27.94;34.13
23619;BME280;18207;32.078;34.818;2023-02-19T08:33:53;101965.41;;;28.01;33.88
23619;BME280;18207;32.078;34.818;2023-02-19T08:36:25;101964.44;;;28.09;33.89
23619;BME280;18207;32.078;34.818;2023-02-19T08:38:55;101960.16;;;28.15;33.98
23619;BME280;18207;32.078;34.818;2023-02-19T08:41:27;101963.25;;;28.22;33.61
23619;BME280;18207;32.078;34.818;2023-02-19T08:43:58;101957.34;;;28.27;33.65
23619;BME280;18207;32.078;34.818;2023-02-19T08:46:29;101947.78;;;28.32;33.56
23619;BME280;18207;32.078;34.818;2023-02-19T08:49:01;101941.88;;;28.37;33.62
23619;BME280;18207;32.078;34.818;2023-02-19T08:51:32;101939.94;;;28.41;33.44
23619;BME280;18207;32.078;34.818;2023-02-19T08:54:03;101938.88;;;28.45;33.13
23619;BME280;18207;32.078;34.818;2023-02-19T08:56:37;101933.34;;;28.49;32.97
23619;BME280;18207;32.078;34.818;2023-02-19T08:59:08;101934.97;;;28.50;32.71
23619;BME280;18207;32.078;34.818;2023-02-19T09:01:39;101926.94;;;28.52;32.88
23619;BME280;18207;32.078;34.818;2023-02-19T09:04:14;101924.94;;;28.52;32.54
23619;BME280;18207;32.078;34.818;2023-02-19T09:06:46;101931.78;;;28.51;32.62
23619;BME280;18207;32.078;34.818;2023-02-19T09:09:17;101928.13;;;28.51;32.54
23619;BME280;18207;32.078;34.818;2023-02-19T09:11:50;101923.31;;;28.51;32.13
23619;BME280;18207;32.078;34.818;2023-02-19T09:14:21;101922.03;;;28.49;32.36
23619;BME280;18207;32.078;34.818;2023-02-19T09:16:51;101918.72;;;28.47;32.05
23619;BME280;18207;32.078;34.818;2023-02-19T09:19:22;101908.94;;;28.44;32.19
23619;BME280;18207;32.078;34.818;2023-02-19T09:21:54;101912.97;;;28.43;32.11
23619;BME280;18207;32.078;34.818;2023-02-19T09:24:25;101904.84;;;28.42;32.04
23619;BME280;18207;32.078;34.818;2023-02-19T09:27:00;101895.88;;;28.40;32.12
23619;BME280;18207;32.078;34.818;2023-02-19T09:29:31;101899.09;;;28.38;32.19
23619;BME280;18207;32.078;34.818;2023-02-19T09:32:02;101887.31;;;28.36;32.17
23619;BME280;18207;32.078;34.818;2023-02-19T09:34:33;101894.13;;;28.35;32.05
23619;BME280;18207;32.078;34.818;2023-02-19T09:37:06;101885.22;;;28.33;31.59
23619;BME280;18207;32.078;34.818;2023-02-19T09:39:37;101885.94;;;28.30;32.00
23619;BME280;18207;32.078;34.818;2023-02-19T09:42:16;101874.16;;;28.28;32.08
23619;BME280;18207;32.078;34.818;2023-02-19T09:44:51;101872.41;;;28.24;31.81
23619;BME280;18207;32.078;34.818;2023-02-19T09:47:25;101867.81;;;28.19;31.88
23619;BME280;18207;32.078;34.818;2023-02-19T09:50:04;101865.69;;;28.16;32.02
23619;BME280;18207;32.078;34.818;2023-02-19T09:52:40;101860.78;;;28.13;31.99
23619;BME280;18207;32.078;34.818;2023-02-19T09:55:17;101856.19;;;28.09;31.71
23619;BME280;18207;32.078;34.818;2023-02-19T09:57:58;101857.28;;;28.04;31.77
23619;BME280;18207;32.078;34.818;2023-02-19T10:00:35;101840.56;;;27.99;31.53
23619;BME280;18207;32.078;34.818;2023-02-19T10:03:13;101843.28;;;27.96;31.84
23619;BME280;18207;32.078;34.818;2023-02-19T10:05:47;101837.88;;;27.91;31.70
23619;BME280;18207;32.078;34.818;2023-02-19T10:08:20;101841.44;;;27.88;31.60
23619;BME280;18207;32.078;34.818;2023-02-19T10:10:54;101834.84;;;27.84;31.62
23619;BME280;18207;32.078;34.818;2023-02-19T10:13:36;101826.28;;;27.80;31.86
23619;BME280;18207;32.078;34.818;2023-02-19T10:16:15;101824.53;;;27.76;31.53
23619;BME280;18207;32.078;34.818;2023-02-19T10:18:48;101821.94;;;27.71;31.51
23619;BME280;18207;32.078;34.818;2023-02-19T10:21:24;101825.84;;;27.67;31.64
23619;BME280;18207;32.078;34.818;2023-02-19T10:24:00;101816.44;;;27.63;31.44
23619;BME280;18207;32.078;34.818;2023-02-19T10:26:33;101811.84;;;27.58;31.59
23619;BME280;18207;32.078;34.818;2023-02-19T10:29:06;101814.56;;;27.55;31.45
23619;BME280;18207;32.078;34.818;2023-02-19T10:31:36;101808.78;;;27.51;31.57
23619;BME280;18207;32.078;34.818;2023-02-19T10:34:18;101805.84;;;27.48;31.61
23619;BME280;18207;32.078;34.818;2023-02-19T10:36:51;101799.28;;;27.44;31.39
23619;BME280;18207;32.078;34.818;2023-02-19T10:39:40;101804.38;;;27.38;31.53
23619;BME280;18207;32.078;34.818;2023-02-19T10:42:19;101796.13;;;27.33;31.52
23619;BME280;18207;32.078;34.818;2023-02-19T10:44:56;101785.09;;;27.28;31.62
23619;BME280;18207;32.078;34.818;2023-02-19T10:47:31;101776.53;;;27.25;31.58
23619;BME280;18207;32.078;34.818;2023-02-19T10:50:03;101781.22;;;27.21;31.88
23619;BME280;18207;32.078;34.818;2023-02-19T10:52:36;101773.47;;;27.18;31.50
23619;BME280;18207;32.078;34.818;2023-02-19T10:55:24;101772.53;;;27.14;31.56
23619;BME280;18207;32.078;34.818;2023-02-19T10:57:57;101776.75;;;27.08;31.59
23619;BME280;18207;32.078;34.818;2023-02-19T11:00:36;101776.31;;;27.06;31.60
23619;BME280;18207;32.078;34.818;2023-02-19T11:03:21;101768.06;;;27.01;31.53
23619;BME280;18207;32.078;34.818;2023-02-19T11:06:00;101768.31;;;26.96;31.41
23619;BME280;18207;32.078;34.818;2023-02-19T11:08:55;101771.00;;;26.92;31.48
23619;BME280;18207;32.078;34.818;2023-02-19T11:11:33;101768.41;;;26.87;31.42
23619;BME280;18207;32.078;34.818;2023-02-19T11:14:14;101770.28;;;26.83;31.46
23619;BME280;18207;32.078;34.818;2023-02-19T11:16:50;101754.44;;;26.79;31.50
23619;BME280;18207;32.078;34.818;2023-02-19T11:19:28;101760.78;;;26.76;31.54
23619;BME280;18207;32.078;34.818;2023-02-19T11:22:02;101756.66;;;26.74;31.55
23619;BME280;18207;32.078;34.818;2023-02-19T11:24:51;101752.91;;;26.70;31.60
23619;BME280;18207;32.078;34.818;2023-02-19T11:27:26;101754.78;;;26.66;31.57
23619;BME280;18207;32.078;34.818;2023-02-19T11:30:37;101750.56;;;26.60;31.65
23619;BME280;18207;32.078;34.818;2023-02-19T11:33:26;101746.00;;;26.55;31.46
23619;BME280;18207;32.078;34.818;2023-02-19T11:36:30;101744.22;;;26.51;31.68
23619;BME280;18207;32.078;34.818;2023-02-19T11:39:20;101746.09;;;26.47;31.88
23619;BME280;18207;32.078;34.818;2023-02-19T11:42:32;101751.63;;;26.43;31.92
23619;BME280;18207;32.078;34.818;2023-02-19T11:45:26;101747.50;;;26.41;31.74
23619;BME280;18207;32.078;34.818;2023-02-19T11:48:26;101744.88;;;26.36;31.93
23619;BME280;18207;32.078;34.818;2023-02-19T11:51:21;101746.03;;;26.35;32.36
23619;BME280;18207;32.078;34.818;2023-02-19T11:54:14;101737.47;;;26.31;32.30
23619;BME280;18207;32.078;34.818;2023-02-19T11:56:55;101736.97;;;26.29;32.25
23619;BME280;18207;32.078;34.818;2023-02-19T11:59:37;101739.00;;;26.29;32.37
23619;BME280;18207;32.078;34.818;2023-02-19T12:02:44;101735.28;;;26.61;32.17
23619;BME280;18207;32.078;34.818;2023-02-19T12:05:48;101729.53;;;26.45;32.38
23619;BME280;18207;32.078;34.818;2023-02-19T12:12:11;101724.91;;;26.29;32.30
23619;BME280;18207;32.078;34.818;2023-02-19T12:15:21;101726.75;;;26.25;32.82
23619;BME280;18207;32.078;34.818;2023-02-19T12:18:34;101722.19;;;26.20;32.64
23619;BME280;18207;32.078;34.818;2023-02-19T12:21:28;101718.91;;;26.18;32.90
23619;BME280;18207;32.078;34.818;2023-02-19T12:27:37;101721.81;;;26.10;32.82
23619;BME280;18207;32.078;34.818;2023-02-19T12:30:38;101720.06;;;26.05;32.76
23619;BME280;18207;32.078;34.818;2023-02-19T12:37:13;101710.88;;;25.97;32.75
23619;BME280;18207;32.078;34.818;2023-02-19T12:39:58;101716.84;;;25.95;33.04
23619;BME280;18207;32.078;34.818;2023-02-19T12:42:49;101714.41;;;25.94;32.93
23619;BME280;18207;32.078;34.818;2023-02-19T12:45:30;101713.09;;;25.91;33.08
23619;BME280;18207;32.078;34.818;2023-02-19T12:48:11;101713.44;;;25.90;32.98
23619;BME280;18207;32.078;34.818;2023-02-19T12:50:46;101708.16;;;25.88;33.23
23619;BME280;18207;32.078;34.818;2023-02-19T12:53:40;101713.31;;;25.86;33.29
23619;BME280;18207;32.078;34.818;2023-02-19T12:56:19;101712.84;;;25.84;33.10
23619;BME280;18207;32.078;34.818;2023-02-19T12:58:54;101716.00;;;25.83;33.36
23619;BME280;18207;32.078;34.818;2023-02-19T13:01:32;101723.16;;;25.80;33.34
23619;BME280;18207;32.078;34.818;2023-02-19T13:04:19;101713.88;;;25.80;33.45
23619;BME280;18207;32.078;34.818;2023-02-19T13:06:59;101712.25;;;25.79;33.38
23619;BME280;18207;32.078;34.818;2023-02-19T13:09:50;101708.97;;;25.77;33.55
23619;BME280;18207;32.078;34.818;2023-02-19T13:12:27;101709.25;;;25.75;33.52
23619;BME280;18207;32.078;34.818;2023-02-19T13:15:02;101716.09;;;25.74;33.68
23619;BME280;18207;32.078;34.818;2023-02-19T13:17:40;101715.59;;;25.72;33.58
23619;BME280;18207;32.078;34.818;2023-02-19T13:20:27;101710.28;;;25.71;33.53
23619;BME280;18207;32.078;34.818;2023-02-19T13:23:06;101708.69;;;25.70;33.82
23619;BME280;18207;32.078;34.818;2023-02-19T13:26:27;101711.69;;;25.65;33.58
23619;BME280;18207;32.078;34.818;2023-02-19T13:29:35;101696.31;;;25.62;33.73
23619;BME280;18207;32.078;34.818;2023-02-19T13:32:45;101698.19;;;25.58;34.08
23619;BME280;18207;32.078;34.818;2023-02-19T13:35:57;101701.69;;;25.55;33.59
23619;BME280;18207;32.078;34.818;2023-02-19T13:38:41;101699.56;;;25.52;33.91
23619;BME280;18207;32.078;34.818;2023-02-19T13:41:28;101694.63;;;25.49;33.84
23619;BME280;18207;32.078;34.818;2023-02-19T13:44:02;101691.00;;;25.49;33.93